Time;durP1;ratioP1;P1;durP2;ratioP2;P2;SDS_P1;SDS_P2;PMS_P1;PMS_P2;Temp;Humidity;BMP_temperature;BMP_pressure;BME280_temperature;BME280_humidity;BME280_pressure;Samples;Min_cycle;Max_cycle;Signal;HPM_P1;HPM_P2
2022/11/03 00:01:41;;;;;;;10.10;1.70;;;12.00;91.80;;;;;;4991950;28;20524;-70
2022/11/03 00:04:19;;;;;;;8.35;1.60;;;11.90;91.80;;;;;;4991481;28;20041;-71
2022/11/03 00:06:47;;;;;;;13.73;1.70;;;11.90;92.00;;;;;;4990906;28;20038;-71
2022/11/03 00:09:15;;;;;;;6.60;1.30;;;11.90;92.10;;;;;;4991750;28;20057;-70
2022/11/03 00:11:42;;;;;;;11.70;1.88;;;11.90;92.00;;;;;;4992081;28;20108;-71
2022/11/03 00:14:09;;;;;;;16.20;2.78;;;11.90;92.20;;;;;;4991733;28;20026;-71
2022/11/03 00:16:36;;;;;;;10.52;1.40;;;11.90;92.20;;;;;;4991627;28;20030;-71
2022/11/03 00:19:03;;;;;;;12.77;2.65;;;11.90;92.30;;;;;;4991651;28;20042;-73
2022/11/03 00:21:29;;;;;;;14.17;2.00;;;11.90;92.30;;;;;;4991509;28;20038;-72
2022/11/03 00:23:55;;;;;;;9.50;1.48;;;11.90;92.60;;;;;;4990707;28;20072;-70
2022/11/03 00:26:28;;;;;;;6.90;1.20;;;11.90;92.40;;;;;;4991612;28;20045;-70
2022/11/03 00:28:55;;;;;;;7.85;1.73;;;11.90;92.30;;;;;;4991738;28;20034;-71
2022/11/03 00:31:24;;;;;;;6.88;1.38;;;12.00;92.50;;;;;;4991625;28;20038;-70
2022/11/03 00:33:50;;;;;;;9.35;1.88;;;11.90;92.30;;;;;;4991315;28;20034;-71
2022/11/03 00:36:19;;;;;;;12.63;2.17;;;11.90;92.30;;;;;;4991196;28;20054;-71
2022/11/03 00:38:45;;;;;;;9.98;1.65;;;11.90;92.40;;;;;;4990750;28;20113;-72
2022/11/03 00:41:11;;;;;;;12.73;2.55;;;12.00;92.40;;;;;;4991450;28;20065;-73
2022/11/03 00:43:37;;;;;;;9.63;1.45;;;12.00;92.60;;;;;;4991210;28;20030;-73
2022/11/03 00:46:05;;;;;;;14.20;2.17;;;12.10;92.40;;;;;;4991131;28;20157;-71
2022/11/03 00:48:32;;;;;;;8.32;1.48;;;12.10;92.20;;;;;;4991118;28;20448;-73
2022/11/03 00:51:12;;;;;;;6.72;1.40;;;12.10;92.40;;;;;;4991394;28;20026;-71
2022/11/03 00:53:42;;;;;;;8.82;1.42;;;12.00;92.60;;;;;;4991408;28;20562;-73
2022/11/03 00:56:21;;;;;;;7.60;1.70;;;12.10;92.50;;;;;;4991195;28;20043;-73
2022/11/03 00:58:48;;;;;;;11.40;1.63;;;12.10;92.60;;;;;;4990745;28;20022;-73
2022/11/03 01:01:20;;;;;;;13.80;1.70;;;12.10;92.50;;;;;;4994087;28;20113;-73
2022/11/03 01:06:49;;;;;;;8.30;1.67;;;12.10;93.00;;;;;;4995236;28;20076;-73
2022/11/03 01:09:37;;;;;;;6.32;1.40;;;12.10;92.70;;;;;;4994888;28;20023;-72
2022/11/03 01:12:15;;;;;;;7.03;1.38;;;12.10;92.80;;;;;;4995235;28;20042;-74
2022/11/03 01:14:42;;;;;;;5.75;1.55;;;12.10;92.80;;;;;;4995534;28;20353;-73
2022/11/03 01:17:14;;;;;;;6.50;1.38;;;12.10;92.90;;;;;;4994656;28;20030;-71
2022/11/03 01:19:40;;;;;;;7.03;1.23;;;12.20;92.80;;;;;;4994789;28;20023;-71
2022/11/03 01:22:06;;;;;;;7.20;1.98;;;12.10;92.90;;;;;;4994685;28;20428;-71
2022/11/03 01:24:33;;;;;;;7.60;1.77;;;12.10;92.80;;;;;;4993404;28;20073;-72
2022/11/03 01:26:59;;;;;;;9.38;1.98;;;12.20;92.90;;;;;;4993520;28;20034;-72
2022/11/03 01:29:25;;;;;;;11.95;1.83;;;12.20;92.90;;;;;;4993835;28;20161;-71
2022/11/03 01:31:50;;;;;;;10.43;1.25;;;12.20;92.80;;;;;;4993434;28;20053;-71
2022/11/03 01:34:18;;;;;;;10.27;2.00;;;12.20;93.00;;;;;;4994356;28;20356;-71
2022/11/03 01:36:45;;;;;;;10.27;1.92;;;12.20;92.70;;;;;;4994354;28;20069;-71
2022/11/03 01:39:16;;;;;;;6.28;1.50;;;12.20;92.90;;;;;;4994259;28;20483;-71
2022/11/03 01:41:44;;;;;;;6.05;1.30;;;12.20;92.90;;;;;;4994754;28;20053;-71
2022/11/03 01:44:09;;;;;;;6.63;1.38;;;12.20;93.00;;;;;;4993309;28;20084;-72
2022/11/03 01:46:55;;;;;;;6.10;1.48;;;12.20;92.90;;;;;;4993185;28;20027;-71
2022/11/03 01:49:45;;;;;;;7.10;1.20;;;12.20;92.90;;;;;;4983105;28;20360;-70
2022/11/03 01:52:16;;;;;;;9.65;1.98;;;12.20;92.80;;;;;;4994781;28;20042;-71
2022/11/03 01:54:45;;;;;;;7.25;1.52;;;12.20;92.90;;;;;;4995096;28;20372;-71
2022/11/03 01:57:15;;;;;;;15.82;1.50;;;12.20;92.80;;;;;;4993539;28;20400;-72
2022/11/03 01:59:43;;;;;;;8.95;1.63;;;12.20;92.90;;;;;;4995474;28;20037;-72
2022/11/03 02:02:10;;;;;;;8.73;1.75;;;12.20;93.00;;;;;;4993760;28;20073;-70
2022/11/03 02:04:35;;;;;;;5.70;1.35;;;12.20;92.90;;;;;;4993883;28;20037;-70
2022/11/03 02:07:07;;;;;;;6.35;1.73;;;12.30;93.00;;;;;;4992682;28;20113;-71
2022/11/03 02:09:32;;;;;;;8.90;1.58;;;12.30;93.00;;;;;;4992717;28;20269;-72
2022/11/03 02:12:05;;;;;;;11.02;1.90;;;12.30;92.90;;;;;;4993465;28;20038;-72
2022/11/03 02:14:30;;;;;;;11.02;1.77;;;12.30;92.90;;;;;;4994518;28;20442;-72
2022/11/03 02:17:02;;;;;;;8.93;1.92;;;12.30;92.90;;;;;;4993583;28;20071;-71
2022/11/03 02:20:10;;;;;;;9.55;1.52;;;12.30;93.10;;;;;;4993916;28;20034;-72
2022/11/03 02:22:59;;;;;;;9.93;1.83;;;12.40;93.00;;;;;;4933369;29;20043;-71
2022/11/03 02:25:45;;;;;;;6.35;1.27;;;12.30;92.90;;;;;;4991281;28;20038;-73
2022/11/03 02:28:15;;;;;;;9.82;1.48;;;12.40;92.90;;;;;;4993406;28;20073;-72
2022/11/03 02:31:01;;;;;;;8.57;1.25;;;12.30;92.80;;;;;;4993609;28;20109;-71
2022/11/03 02:33:33;;;;;;;8.57;1.50;;;12.40;92.70;;;;;;4993280;28;20112;-72
2022/11/03 02:36:31;;;;;;;10.55;1.90;;;12.40;92.60;;;;;;4991808;28;20454;-72
2022/11/03 02:39:02;;;;;;;7.05;1.48;;;12.30;92.70;;;;;;4992126;28;20027;-72
2022/11/03 02:41:32;;;;;;;8.52;1.67;;;12.30;92.80;;;;;;4992508;28;20037;-73
2022/11/03 02:43:59;;;;;;;10.18;1.38;;;12.30;92.80;;;;;;4993038;28;20464;-71
2022/11/03 02:46:26;;;;;;;11.45;1.48;;;12.30;92.80;;;;;;4992927;28;20045;-72
2022/11/03 02:48:52;;;;;;;9.18;1.20;;;12.30;92.70;;;;;;4993055;28;20121;-73
2022/11/03 02:51:18;;;;;;;7.45;1.05;;;12.40;92.90;;;;;;4993190;28;20181;-72
2022/11/03 02:54:10;;;;;;;9.90;1.63;;;12.30;92.80;;;;;;4993419;28;20164;-71
2022/11/03 02:56:45;;;;;;;10.18;1.40;;;12.30;92.90;;;;;;4977026;28;20050;-71
2022/11/03 02:59:17;;;;;;;7.68;1.42;;;12.30;93.00;;;;;;4992734;28;20043;-72
2022/11/03 03:02:01;;;;;;;7.22;1.60;;;12.30;92.90;;;;;;4992632;28;20160;-71
2022/11/03 03:04:35;;;;;;;5.82;1.35;;;12.30;92.90;;;;;;4993001;28;20049;-72
2022/11/03 03:07:09;;;;;;;9.65;1.80;;;12.30;93.00;;;;;;4992893;28;20034;-73
2022/11/03 03:09:40;;;;;;;6.57;1.65;;;12.30;93.00;;;;;;4992631;28;20031;-71
2022/11/03 03:12:09;;;;;;;9.55;2.20;;;12.30;93.00;;;;;;4993152;28;20049;-71
2022/11/03 03:14:37;;;;;;;13.43;2.10;;;12.30;93.00;;;;;;4993150;28;20038;-74
2022/11/03 03:17:17;;;;;;;5.70;1.30;;;12.30;93.00;;;;;;4992732;28;20515;-72
2022/11/03 03:19:59;;;;;;;7.63;1.45;;;12.30;93.20;;;;;;4992607;28;20364;-70
2022/11/03 03:22:39;;;;;;;6.95;1.42;;;12.30;93.20;;;;;;4992043;28;20034;-72
2022/11/03 03:25:14;;;;;;;4.10;1.38;;;12.30;93.20;;;;;;4992711;28;20113;-72
2022/11/03 03:27:46;;;;;;;4.90;1.23;;;12.30;93.10;;;;;;4992518;28;20031;-73
2022/11/03 03:30:12;;;;;;;8.15;1.67;;;12.30;93.20;;;;;;4992371;28;20022;-73
2022/11/03 03:32:44;;;;;;;10.50;1.77;;;12.30;93.20;;;;;;4993098;28;20026;-70
2022/11/03 03:35:16;;;;;;;7.00;1.38;;;12.20;93.10;;;;;;4992289;28;20045;-73
2022/11/03 03:37:46;;;;;;;9.85;1.90;;;12.20;93.20;;;;;;4992510;28;20034;-72
2022/11/03 03:40:19;;;;;;;9.10;1.80;;;12.20;93.30;;;;;;4991154;28;20034;-72
2022/11/03 03:42:47;;;;;;;9.48;1.40;;;12.20;93.30;;;;;;4992084;28;20034;-73
2022/11/03 03:45:13;;;;;;;;;;;12.20;93.30;;;;;;4991538;28;20022;-72
2022/11/03 03:47:39;;;;;;;9.15;1.92;;;12.20;93.30;;;;;;4992652;28;19912;-71
2022/11/03 03:50:05;;;;;;;11.52;2.03;;;12.10;93.30;;;;;;4992324;28;20037;-72
2022/11/03 03:52:34;;;;;;;9.02;1.38;;;12.10;93.30;;;;;;4991918;28;20584;-72
2022/11/03 03:55:00;;;;;;;5.43;1.40;;;12.10;93.40;;;;;;4992149;28;20041;-72
2022/11/03 03:57:29;;;;;;;7.32;1.35;;;12.00;93.50;;;;;;4991826;28;20038;-73
2022/11/03 03:59:55;;;;;;;11.73;1.92;;;12.00;93.60;;;;;;4991232;28;20078;-72
2022/11/03 04:02:21;;;;;;;10.77;1.60;;;12.00;93.70;;;;;;4990921;28;20577;-73
2022/11/03 04:04:46;;;;;;;9.15;1.60;;;12.00;93.70;;;;;;4991716;28;20044;-72
2022/11/03 04:09:56;;;;;;;10.27;1.50;;;12.00;93.70;;;;;;4991578;28;20495;-71
2022/11/03 04:23:23;;;;;;;13.00;2.00;;;11.90;93.70;;;;;;4991878;28;20109;-72
2022/11/03 04:25:52;;;;;;;14.20;1.98;;;11.90;93.80;;;;;;4991381;28;20467;-71
2022/11/03 04:28:18;;;;;;;12.77;2.42;;;12.00;93.80;;;;;;4991558;28;20052;-71
2022/11/03 04:30:44;;;;;;;11.20;1.83;;;12.00;94.10;;;;;;4991359;28;20133;-72
2022/11/03 04:33:14;;;;;;;14.23;2.08;;;11.90;93.90;;;;;;4990299;28;20030;-71
2022/11/03 04:35:43;;;;;;;10.02;1.60;;;11.90;93.90;;;;;;4990883;28;20040;-71
2022/11/03 04:38:14;;;;;;;7.63;1.75;;;11.90;93.90;;;;;;4990343;28;20062;-71
2022/11/03 04:40:54;;;;;;;10.88;1.98;;;11.90;93.90;;;;;;4991267;28;20384;-72
2022/11/03 04:43:22;;;;;;;7.72;1.80;;;11.90;93.90;;;;;;4991400;28;20373;-70
2022/11/03 04:45:48;;;;;;;14.95;2.40;;;11.80;94.00;;;;;;4991139;28;20042;-71
2022/11/03 04:48:21;;;;;;;10.60;2.30;;;11.90;94.00;;;;;;4991361;28;20030;-71
2022/11/03 04:50:50;;;;;;;12.50;1.70;;;11.80;94.00;;;;;;4991460;28;20034;-70
2022/11/03 04:53:18;;;;;;;13.73;2.15;;;11.90;94.00;;;;;;4990961;28;20061;-72
2022/11/03 04:55:45;;;;;;;9.13;1.65;;;11.90;94.10;;;;;;4989935;28;20069;-71
2022/11/03 04:58:33;;;;;;;7.95;1.60;;;11.90;94.00;;;;;;4991049;28;20050;-71
2022/11/03 05:01:00;;;;;;;17.42;2.70;;;11.90;94.10;;;;;;4991029;28;20030;-71
2022/11/03 05:03:27;;;;;;;8.45;2.00;;;11.80;94.00;;;;;;4990880;28;20482;-71
2022/11/03 05:05:53;;;;;;;6.10;1.60;;;11.80;94.30;;;;;;4990150;28;20034;-71
2022/11/03 05:08:20;;;;;;;7.78;1.63;;;11.90;94.10;;;;;;4990778;28;20034;-71
2022/11/03 05:10:47;;;;;;;5.83;1.30;;;11.90;94.10;;;;;;4990818;28;20197;-71
2022/11/03 05:13:23;;;;;;;7.75;1.60;;;11.90;94.00;;;;;;4990777;28;20034;-71
2022/11/03 05:15:51;;;;;;;13.30;1.92;;;11.90;94.10;;;;;;4990768;28;20038;-72
2022/11/03 05:18:20;;;;;;;18.30;2.22;;;11.80;94.20;;;;;;4989793;28;20077;-72
2022/11/03 05:20:58;;;;;;;11.95;1.70;;;11.80;94.30;;;;;;4991560;28;20029;-72
2022/11/03 05:23:26;;;;;;;9.50;1.60;;;11.80;94.20;;;;;;4990989;28;20042;-71
2022/11/03 05:25:55;;;;;;;10.48;2.00;;;11.80;94.10;;;;;;4990979;28;20058;-72
2022/11/03 05:28:27;;;;;;;11.50;1.50;;;11.90;94.30;;;;;;4990832;28;20067;-73
2022/11/03 05:30:54;;;;;;;8.52;2.15;;;11.80;94.30;;;;;;4990747;28;20108;-72
2022/11/03 05:33:21;;;;;;;7.68;1.58;;;11.80;94.30;;;;;;4990829;28;20041;-73
2022/11/03 05:35:47;;;;;;;13.68;2.10;;;11.80;94.40;;;;;;4991243;28;20483;-72
2022/11/03 05:38:15;;;;;;;9.65;1.92;;;11.80;94.50;;;;;;4990854;28;20460;-72
2022/11/03 05:40:41;;;;;;;10.18;1.92;;;11.80;94.50;;;;;;4990668;28;20034;-72
2022/11/03 05:43:11;;;;;;;8.68;1.80;;;11.80;94.50;;;;;;4989458;28;20073;-71
2022/11/03 05:45:37;;;;;;;8.52;1.60;;;11.90;94.50;;;;;;4990969;28;20503;-71
2022/11/03 05:48:16;;;;;;;10.93;1.55;;;11.80;94.50;;;;;;4992987;28;20026;-72
2022/11/03 05:50:42;;;;;;;10.20;1.98;;;11.80;94.50;;;;;;4993466;28;20030;-72
2022/11/03 05:53:16;;;;;;;9.32;1.50;;;11.90;94.60;;;;;;4994893;28;20364;-70
2022/11/03 05:55:42;;;;;;;10.18;1.52;;;11.90;94.60;;;;;;4994656;28;20088;-71
2022/11/03 05:58:27;;;;;;;9.85;2.17;;;11.90;94.50;;;;;;4993386;28;20038;-71
2022/11/03 06:00:54;;;;;;;11.73;1.65;;;11.90;94.60;;;;;;4993971;28;20443;-71
2022/11/03 06:03:26;;;;;;;13.93;1.95;;;11.90;94.70;;;;;;4992971;28;20034;-71
2022/11/03 06:05:52;;;;;;;11.68;2.10;;;11.90;94.70;;;;;;4994690;28;20439;-71
2022/11/03 06:08:24;;;;;;;7.82;2.00;;;11.90;94.50;;;;;;4992800;28;20380;-72
2022/11/03 06:10:53;;;;;;;7.70;2.05;;;11.90;94.60;;;;;;4993946;28;20050;-71
2022/11/03 06:13:20;;;;;;;;;;;11.90;94.80;;;;;;4994124;28;20122;-72
2022/11/03 06:15:50;;;;;;;10.15;1.92;;;11.90;94.90;;;;;;4992748;28;20009;-72
2022/11/03 06:18:20;;;;;;;12.23;1.70;;;11.90;94.80;;;;;;4993977;28;20034;-73
2022/11/03 06:21:17;;;;;;;4.40;1.48;;;11.90;94.80;;;;;;4994420;28;20053;-70
2022/11/03 06:23:44;;;;;;;6.57;1.75;;;11.90;94.80;;;;;;4993375;28;20070;-72
2022/11/03 06:26:17;;;;;;;9.65;1.83;;;11.90;94.80;;;;;;4994543;28;20108;-73
2022/11/03 06:28:43;;;;;;;8.27;2.30;;;11.90;94.90;;;;;;4994304;28;20038;-72
2022/11/03 06:31:30;;;;;;;9.60;1.77;;;11.90;94.80;;;;;;4994160;28;20042;-73
2022/11/03 06:34:00;;;;;;;10.27;1.83;;;11.90;94.80;;;;;;4992710;28;20034;-72
2022/11/03 06:36:35;;;;;;;10.32;1.98;;;11.90;95.00;;;;;;4992388;28;20058;-71
2022/11/03 06:39:08;;;;;;;6.90;1.90;;;11.90;95.10;;;;;;4980592;28;20073;-72
2022/11/03 06:41:35;;;;;;;11.32;2.15;;;11.90;95.00;;;;;;4989614;28;20515;-72
2022/11/03 06:44:16;;;;;;;9.18;1.85;;;11.90;95.40;;;;;;4974246;28;20163;-72
2022/11/03 06:46:42;;;;;;;10.00;1.38;;;11.90;95.10;;;;;;4973788;28;20532;-72
2022/11/03 06:49:28;;;;;;;14.35;1.75;;;12.00;95.00;;;;;;4973850;28;20365;-72
2022/11/03 06:51:55;;;;;;;9.10;2.00;;;12.00;95.00;;;;;;4988901;28;20031;-71
2022/11/03 06:54:21;;;;;;;13.47;1.80;;;12.00;95.10;;;;;;4973724;28;20027;-73
2022/11/03 06:56:47;;;;;;;13.35;2.13;;;12.00;95.20;;;;;;4973900;28;20281;-71
2022/11/03 06:59:14;;;;;;;14.73;3.20;;;11.90;95.20;;;;;;4973339;28;20034;-72
2022/11/03 07:01:40;;;;;;;12.93;2.08;;;12.00;95.40;;;;;;4974069;28;20085;-74
2022/11/03 07:04:17;;;;;;;11.70;1.83;;;12.00;95.30;;;;;;4973337;28;20452;-71
2022/11/03 07:06:44;;;;;;;12.57;1.75;;;12.00;95.40;;;;;;4988913;28;20051;-73
2022/11/03 07:09:19;;;;;;;9.20;1.60;;;12.00;95.30;;;;;;4973289;28;20484;-71
2022/11/03 07:12:09;;;;;;;16.58;4.32;;;12.00;95.40;;;;;;4988894;28;20373;-71
2022/11/03 07:14:35;;;;;;;15.73;2.58;;;12.00;95.40;;;;;;4973502;28;20093;-72
2022/11/03 07:17:11;;;;;;;8.00;2.25;;;12.00;95.40;;;;;;4973048;28;20063;-72
2022/11/03 07:19:40;;;;;;;13.20;3.65;;;12.10;95.40;;;;;;4973126;28;20122;-72
2022/11/03 07:22:17;;;;;;;10.63;2.55;;;12.10;95.50;;;;;;4973000;28;20484;-72
2022/11/03 07:24:45;;;;;;;16.60;2.97;;;12.10;95.50;;;;;;4973069;28;20122;-73
2022/11/03 07:27:23;;;;;;;11.88;2.63;;;12.20;95.50;;;;;;4973369;28;20102;-73
2022/11/03 07:29:50;;;;;;;11.80;2.80;;;12.20;95.50;;;;;;4973657;28;20041;-71
2022/11/03 07:32:22;;;;;;;14.38;3.90;;;12.20;95.60;;;;;;4974570;28;20050;-74
2022/11/03 07:34:51;;;;;;;7.35;2.22;;;12.30;95.60;;;;;;4988488;28;20075;-73
2022/11/03 07:37:23;;;;;;;9.85;2.13;;;12.20;95.50;;;;;;4988233;28;20369;-72
2022/11/03 07:39:50;;;;;;;8.38;2.22;;;12.30;95.50;;;;;;4973464;28;20035;-73
2022/11/03 07:42:23;;;;;;;7.93;1.70;;;12.30;95.50;;;;;;4973271;28;20034;-72
2022/11/03 07:44:50;;;;;;;11.73;2.20;;;12.30;95.50;;;;;;4973579;28;20035;-72
2022/11/03 07:47:20;;;;;;;13.68;2.33;;;12.40;95.50;;;;;;4973179;28;20027;-74
2022/11/03 07:49:46;;;;;;;7.97;2.28;;;12.40;95.50;;;;;;4972898;28;20027;-73
2022/11/03 07:52:15;;;;;;;7.18;1.95;;;12.40;95.40;;;;;;4987953;28;20126;-72
2022/11/03 07:54:41;;;;;;;7.88;2.00;;;12.50;95.40;;;;;;4972929;28;20027;-72
2022/11/03 07:57:14;;;;;;;9.38;2.10;;;12.40;95.50;;;;;;4973164;28;20049;-72
2022/11/03 07:59:43;;;;;;;14.88;2.65;;;12.60;95.60;;;;;;4988689;28;20019;-72
2022/11/03 08:02:47;;;;;;;16.75;2.53;;;12.50;95.50;;;;;;4987755;28;20027;-73
2022/11/03 08:05:13;;;;;;;10.27;1.60;;;12.50;95.40;;;;;;4972687;28;20073;-73
2022/11/03 08:07:38;;;;;;;7.15;1.67;;;12.60;95.50;;;;;;4972973;28;20026;-72
2022/11/03 08:10:06;;;;;;;13.88;3.65;;;12.60;95.50;;;;;;4972289;28;20066;-72
2022/11/03 08:12:32;;;;;;;10.88;2.60;;;12.60;95.60;;;;;;4972674;28;20101;-73
2022/11/03 08:14:57;;;;;;;17.65;2.53;;;12.70;95.60;;;;;;4972536;28;20441;-73
2022/11/03 08:17:23;;;;;;;9.43;1.98;;;12.70;95.50;;;;;;4972619;28;20031;-73
2022/11/03 08:19:49;;;;;;;10.40;1.95;;;12.70;95.40;;;;;;4972125;28;20104;-73
2022/11/03 08:22:15;;;;;;;8.40;1.90;;;12.80;95.50;;;;;;4972065;28;20368;-73
2022/11/03 08:24:40;;;;;;;4.88;1.50;;;12.80;95.40;;;;;;4970940;28;20061;-73
2022/11/03 08:27:06;;;;;;;8.80;1.83;;;12.80;95.40;;;;;;4971064;28;20027;-73
2022/11/03 08:29:32;;;;;;;17.73;2.00;;;12.90;95.40;;;;;;4971568;28;20022;-73
2022/11/03 08:31:57;;;;;;;10.35;1.77;;;12.90;95.40;;;;;;4987167;28;20346;-72
2022/11/03 08:34:23;;;;;;;11.48;1.70;;;13.00;95.50;;;;;;4972308;28;20035;-72
2022/11/03 08:36:49;;;;;;;11.70;2.15;;;13.10;95.30;;;;;;4971957;28;20051;-72
2022/11/03 08:39:14;;;;;;;9.35;2.03;;;13.20;95.20;;;;;;4972312;28;20098;-74
2022/11/03 08:41:40;;;;;;;7.85;1.98;;;13.30;95.30;;;;;;4972965;28;20055;-72
2022/11/03 08:44:06;;;;;;;12.25;3.50;;;13.30;95.20;;;;;;4970791;28;20034;-73
2022/11/03 08:46:31;;;;;;;12.43;4.18;;;13.40;95.10;;;;;;4987114;28;20027;-73
2022/11/03 08:48:57;;;;;;;15.50;2.33;;;13.40;95.00;;;;;;4971998;28;20360;-72
2022/11/03 08:51:23;;;;;;;9.68;2.10;;;13.40;95.00;;;;;;4971834;28;20042;-72
2022/11/03 08:53:53;;;;;;;7.45;1.70;;;13.50;95.00;;;;;;4987945;28;20086;-73
2022/11/03 08:56:19;;;;;;;11.77;2.45;;;13.50;95.10;;;;;;4971968;28;20038;-72
2022/11/03 08:58:46;;;;;;;9.90;2.08;;;13.60;95.00;;;;;;4971984;28;20027;-75
2022/11/03 09:01:13;;;;;;;16.77;2.60;;;13.60;95.00;;;;;;4971844;28;20031;-73
2022/11/03 09:03:39;;;;;;;12.15;2.05;;;13.70;95.00;;;;;;4971956;28;20151;-73
2022/11/03 09:06:04;;;;;;;12.60;2.30;;;13.80;95.00;;;;;;4971872;28;20037;-72
2022/11/03 09:08:30;;;;;;;9.35;2.00;;;13.80;94.90;;;;;;4972390;28;20027;-72
2022/11/03 09:10:56;;;;;;;4.68;1.63;;;13.90;94.90;;;;;;4971693;28;20057;-72
2022/11/03 09:13:21;;;;;;;9.52;2.15;;;14.00;94.80;;;;;;4970729;28;20046;-71
2022/11/03 09:15:47;;;;;;;6.47;1.75;;;13.90;94.80;;;;;;4970622;28;20525;-72
2022/11/03 09:18:13;;;;;;;10.15;2.00;;;14.00;94.90;;;;;;4971740;28;20392;-72
2022/11/03 09:20:39;;;;;;;12.23;1.85;;;14.00;94.80;;;;;;4972923;28;20023;-72
2022/11/03 09:23:04;;;;;;;10.20;2.08;;;14.10;94.80;;;;;;4975711;28;20047;-72
2022/11/03 09:25:30;;;;;;;9.75;1.77;;;14.10;94.80;;;;;;4975734;28;20027;-72
2022/11/03 09:27:56;;;;;;;10.30;2.10;;;14.20;94.80;;;;;;4974499;28;20070;-71
2022/11/03 09:30:21;;;;;;;7.07;1.92;;;14.20;94.70;;;;;;4990616;28;20027;-72
2022/11/03 09:32:47;;;;;;;14.10;2.10;;;14.20;94.70;;;;;;4975986;28;20030;-74
2022/11/03 09:35:15;;;;;;;11.40;2.80;;;14.30;94.80;;;;;;4975484;28;20480;-72
2022/11/03 09:37:42;;;;;;;9.98;1.60;;;14.30;94.70;;;;;;4975264;28;20038;-73
2022/11/03 09:40:10;;;;;;;14.20;2.15;;;14.40;94.50;;;;;;4975331;28;20481;-72
2022/11/03 09:42:37;;;;;;;11.10;1.88;;;14.50;94.40;;;;;;4975281;28;20058;-72
2022/11/03 09:45:04;;;;;;;12.47;3.20;;;14.60;94.40;;;;;;4975172;28;20027;-72
2022/11/03 09:47:39;;;;;;;6.18;1.55;;;14.70;94.40;;;;;;4975413;28;20765;-72
2022/11/03 09:50:07;;;;;;;13.43;2.50;;;14.80;94.20;;;;;;4975321;28;20031;-71
2022/11/03 09:52:35;;;;;;;;;;;14.70;94.00;;;;;;4976399;28;20037;-74
2022/11/03 09:55:00;;;;;;;;;;;14.80;94.40;;;;;;4976051;28;19973;-74
2022/11/03 09:57:27;;;;;;;3.80;1.33;;;14.90;94.10;;;;;;4975163;28;19981;-72
2022/11/03 09:59:53;;;;;;;10.77;2.03;;;14.90;94.10;;;;;;4974485;28;20082;-72
2022/11/03 10:02:22;;;;;;;8.15;1.77;;;15.10;94.10;;;;;;4974967;28;20491;-71
2022/11/03 10:04:49;;;;;;;11.77;1.80;;;15.20;94.00;;;;;;4974753;28;20038;-71
2022/11/03 10:07:15;;;;;;;9.13;1.80;;;15.20;94.00;;;;;;4973711;28;20035;-72
2022/11/03 10:09:45;;;;;;;8.43;2.03;;;15.20;93.90;;;;;;4974617;28;20539;-72
2022/11/03 10:12:11;;;;;;;11.05;1.52;;;15.20;93.90;;;;;;4973600;28;20030;-71
2022/11/03 10:14:37;;;;;;;10.07;1.55;;;15.10;93.90;;;;;;4975053;28;20027;-71
2022/11/03 10:17:03;;;;;;;6.43;2.00;;;15.10;94.00;;;;;;4974462;28;20097;-70
2022/11/03 10:19:29;;;;;;;8.95;2.05;;;15.00;94.10;;;;;;4974616;28;20121;-71
2022/11/03 10:21:54;;;;;;;9.05;2.00;;;15.00;94.10;;;;;;4973519;28;20027;-71
2022/11/03 10:24:21;;;;;;;9.50;1.80;;;14.90;94.10;;;;;;4974242;28;20452;-71
2022/11/03 10:26:53;;;;;;;14.82;2.53;;;14.90;94.10;;;;;;4974603;28;20027;-71
2022/11/03 10:29:24;;;;;;;9.25;1.95;;;14.90;94.30;;;;;;4974234;28;20063;-70
2022/11/03 10:31:59;;;;;;;12.90;2.67;;;14.80;94.30;;;;;;4973191;28;20034;-72
2022/11/03 10:34:36;;;;;;;10.10;1.75;;;14.80;94.40;;;;;;4974216;28;20026;-72
2022/11/03 10:37:21;;;;;;;16.70;2.65;;;14.90;94.40;;;;;;4974092;28;20180;-70
2022/11/03 10:39:49;;;;;;;8.85;1.98;;;14.90;94.30;;;;;;4972878;28;20030;-71
2022/11/03 10:42:27;;;;;;;8.95;1.75;;;14.90;94.30;;;;;;4973767;28;20034;-72
2022/11/03 10:45:07;;;;;;;20.50;2.25;;;14.90;94.30;;;;;;4974824;28;20027;-72
2022/11/03 10:47:34;;;;;;;11.75;2.20;;;14.90;94.30;;;;;;4974388;28;20452;-71
2022/11/03 10:50:18;;;;;;;12.63;2.10;;;14.90;94.30;;;;;;4974121;28;20066;-73
2022/11/03 10:52:44;;;;;;;9.68;2.15;;;15.00;94.30;;;;;;4974073;28;20368;-70
2022/11/03 10:55:10;;;;;;;7.60;1.63;;;15.10;94.30;;;;;;4989241;28;20449;-71
2022/11/03 10:57:36;;;;;;;11.05;2.00;;;15.10;94.20;;;;;;4973792;28;20038;-71
2022/11/03 11:00:02;;;;;;;10.00;1.80;;;15.00;94.20;;;;;;4973654;28;20035;-72
2022/11/03 11:02:30;;;;;;;7.13;1.77;;;15.10;94.20;;;;;;4974163;28;20050;-70
2022/11/03 11:05:01;;;;;;;10.20;2.00;;;15.10;94.30;;;;;;4973896;28;20464;-71
2022/11/03 11:07:40;;;;;;;10.15;1.80;;;15.10;94.20;;;;;;4972502;28;20035;-72
2022/11/03 11:10:12;;;;;;;7.20;1.80;;;15.10;94.20;;;;;;4973283;28;20441;-71
2022/11/03 11:12:38;;;;;;;5.03;1.70;;;15.10;94.30;;;;;;4973392;28;20031;-71
2022/11/03 11:15:38;;;;;;;7.57;1.67;;;15.10;94.20;;;;;;4973499;28;20039;-72
2022/11/03 11:18:04;;;;;;;4.50;1.48;;;15.10;94.30;;;;;;4973605;28;20540;-71
2022/11/03 11:20:41;;;;;;;9.88;2.03;;;15.20;94.30;;;;;;4972844;28;20054;-71
2022/11/03 11:23:28;;;;;;;8.68;1.60;;;15.20;94.30;;;;;;4973389;28;20031;-71
2022/11/03 11:26:09;;;;;;;14.35;4.07;;;15.20;94.30;;;;;;4972081;28;20480;-70
2022/11/03 11:28:36;;;;;;;10.68;4.07;;;15.20;94.30;;;;;;4973319;28;20039;-71
2022/11/03 11:31:28;;;;;;;11.20;4.18;;;15.20;94.30;;;;;;4973347;28;20381;-72
2022/11/03 11:34:11;;;;;;;9.18;2.33;;;15.20;94.30;;;;;;4973358;28;20035;-73
2022/11/03 11:36:38;;;;;;;14.70;4.07;;;15.20;94.30;;;;;;4973174;28;20190;-73
2022/11/03 11:39:34;;;;;;;9.40;2.05;;;15.20;94.30;;;;;;4973229;28;20046;-71
2022/11/03 11:42:19;;;;;;;11.57;2.42;;;15.20;94.30;;;;;;4972836;28;20333;-72
2022/11/03 11:44:54;;;;;;;7.80;2.55;;;15.20;94.30;;;;;;4987979;28;20065;-70
2022/11/03 11:47:26;;;;;;;7.75;1.85;;;15.30;94.20;;;;;;4972924;28;20368;-71
2022/11/03 11:50:10;;;;;;;8.80;2.13;;;15.30;94.20;;;;;;4973207;28;20035;-71
2022/11/03 11:52:35;;;;;;;7.00;1.60;;;15.20;94.60;;;;;;4972925;28;20069;-71
2022/11/03 11:55:02;;;;;;;11.25;1.92;;;15.20;94.40;;;;;;4972757;28;20465;-71
2022/11/03 11:57:32;;;;;;;9.13;1.70;;;15.20;94.30;;;;;;4972609;28;20122;-72
2022/11/03 11:59:58;;;;;;;6.43;1.83;;;15.20;94.30;;;;;;4972770;28;20034;-71
2022/11/03 12:02:28;;;;;;;10.02;2.38;;;15.20;94.30;;;;;;4971952;28;20106;-72
2022/11/03 12:05:00;;;;;;;7.05;1.55;;;15.20;94.40;;;;;;4987679;28;20117;-70
2022/11/03 12:07:35;;;;;;;7.80;1.77;;;15.20;94.50;;;;;;4972497;28;20484;-71
2022/11/03 12:10:21;;;;;;;9.40;2.28;;;15.20;94.50;;;;;;4971111;28;20138;-72
2022/11/03 12:12:47;;;;;;;8.30;2.00;;;15.30;94.50;;;;;;4987416;28;20034;-72
2022/11/03 12:15:47;;;;;;;10.32;1.42;;;15.20;94.40;;;;;;4972188;28;20541;-71
2022/11/03 12:18:33;;;;;;;11.63;2.10;;;15.30;94.40;;;;;;4972052;28;20026;-72
2022/11/03 12:21:03;;;;;;;6.10;1.60;;;15.30;94.50;;;;;;4972303;28;20027;-72
2022/11/03 12:23:39;;;;;;;9.82;1.83;;;15.30;94.40;;;;;;4972956;28;20030;-71
2022/11/03 12:26:37;;;;;;;9.48;1.35;;;15.30;94.40;;;;;;4972170;28;20125;-73
2022/11/03 12:29:09;;;;;;;;;;;15.40;94.40;;;;;;4972542;28;20031;-71
2022/11/03 12:31:35;;;;;;;7.47;1.60;;;15.40;94.40;;;;;;4974868;28;19923;-71
2022/11/03 12:34:00;;;;;;;10.90;1.80;;;15.40;94.40;;;;;;4974781;28;20034;-70
2022/11/03 12:36:26;;;;;;;8.32;1.85;;;15.40;94.30;;;;;;4971691;28;20030;-71
2022/11/03 12:38:52;;;;;;;9.10;1.70;;;15.50;94.40;;;;;;4971494;28;20042;-72
2022/11/03 12:41:20;;;;;;;7.78;2.47;;;15.40;94.30;;;;;;4971045;28;20031;-72
2022/11/03 12:43:51;;;;;;;9.18;2.67;;;15.40;94.40;;;;;;4971934;28;20034;-71
2022/11/03 12:46:18;;;;;;;13.48;5.00;;;15.40;94.40;;;;;;4970761;28;20054;-72
2022/11/03 12:48:45;;;;;;;6.70;1.83;;;15.40;94.40;;;;;;4972046;28;20113;-72
2022/11/03 12:51:19;;;;;;;12.10;1.90;;;15.40;94.30;;;;;;4987156;28;20467;-72
2022/11/03 12:53:45;;;;;;;8.80;1.88;;;15.50;94.30;;;;;;4987366;28;20470;-72
2022/11/03 12:56:15;;;;;;;7.85;1.70;;;15.50;94.30;;;;;;4971297;28;20039;-70
2022/11/03 12:58:41;;;;;;;5.40;1.60;;;15.50;94.20;;;;;;4971890;28;20038;-71
2022/11/03 13:01:07;;;;;;;8.93;1.90;;;15.40;94.20;;;;;;4971526;28;20043;-71
2022/11/03 13:03:34;;;;;;;12.73;1.90;;;15.40;94.20;;;;;;4987044;28;20034;-72
2022/11/03 13:06:03;;;;;;;6.93;1.65;;;15.40;94.30;;;;;;4971718;28;20062;-71
2022/11/03 13:08:31;;;;;;;9.40;2.08;;;15.50;94.30;;;;;;4987464;28;20114;-71
2022/11/03 13:10:57;;;;;;;7.45;1.70;;;15.40;94.20;;;;;;4986465;28;20047;-71
2022/11/03 13:13:24;;;;;;;11.20;3.42;;;15.50;94.20;;;;;;4986637;28;20041;-72
2022/11/03 13:15:49;;;;;;;10.82;2.28;;;15.40;94.20;;;;;;4971625;28;20035;-71
2022/11/03 13:18:15;;;;;;;15.27;6.00;;;15.40;94.20;;;;;;4971472;28;20048;-72